createdAt,value
2018-03-18T00:00:27.668Z,36.1
2018-03-18T00:01:17.303Z,35.9
2018-03-18T00:02:06.824Z,35.7
2018-03-18T00:02:56.743Z,35.4
2018-03-18T00:03:47.714Z,35.1
2018-03-18T00:04:37.837Z,34.8
2018-03-18T00:05:26.856Z,34.4
2018-03-18T00:06:17.884Z,34.2
2018-03-18T00:07:07.934Z,33.8
2018-03-18T00:07:57.108Z,33.6
2018-03-18T00:08:48.312Z,33.3
2018-03-18T00:09:37.364Z,32.9
2018-03-18T00:10:28.197Z,32.7
2018-03-18T00:11:16.695Z,32.4
2018-03-18T00:12:08.126Z,32.2
2018-03-18T00:12:56.908Z,31.9
2018-03-18T00:13:47.641Z,31.7
2018-03-18T00:14:37.691Z,31.4
2018-03-18T00:15:29.164Z,31.2
2018-03-18T00:16:18.179Z,31
2018-03-18T00:17:07.678Z,30.8
2018-03-18T00:17:58.746Z,30.6
2018-03-18T00:18:48.706Z,31.1
2018-03-18T00:19:38.799Z,32.1
2018-03-18T00:20:29.356Z,33.5
2018-03-18T00:21:19.267Z,34.8
2018-03-18T00:22:09.153Z,35.6
2018-03-18T00:22:58.803Z,36
2018-03-18T00:23:49.045Z,36.1
2018-03-18T00:24:39.042Z,36
2018-03-18T00:25:28.581Z,35.8
2018-03-18T00:26:19.334Z,35.6
2018-03-18T00:27:10.040Z,35.3
2018-03-18T00:28:00.126Z,35
2018-03-18T00:28:50.090Z,34.7
2018-03-18T00:29:38.780Z,34.4
2018-03-18T00:30:29.775Z,34.1
2018-03-18T00:31:20.294Z,33.8
2018-03-18T00:32:10.357Z,33.5
2018-03-18T00:33:00.024Z,33.2
2018-03-18T00:33:49.484Z,32.9
2018-03-18T00:34:39.909Z,32.6
2018-03-18T00:35:30.232Z,32.3
2018-03-18T00:36:20.534Z,32.1
2018-03-18T00:37:10.278Z,31.9
2018-03-18T00:37:59.362Z,31.6
2018-03-18T00:38:49.637Z,31.4
2018-03-18T00:39:40.961Z,31.2
2018-03-18T00:40:30.257Z,30.9
2018-03-18T00:41:21.300Z,30.7
2018-03-18T00:42:10.822Z,31.3
2018-03-18T00:43:00.057Z,32.1
2018-03-18T00:43:51.213Z,33.4
2018-03-18T00:44:40.549Z,34.8
2018-03-18T00:45:31.228Z,35.5
2018-03-18T00:46:21.274Z,35.9
2018-03-18T00:47:10.987Z,36.1
2018-03-18T00:48:00.632Z,36
2018-03-18T00:48:51.234Z,35.9
2018-03-18T00:49:41.433Z,35.6
2018-03-18T00:50:31.939Z,35.3
2018-03-18T00:51:20.375Z,35
2018-03-18T00:52:11.976Z,34.8
2018-03-18T00:53:01.526Z,34.4
2018-03-18T00:53:51.149Z,34.1
2018-03-18T00:54:40.111Z,33.8
2018-03-18T00:55:32.143Z,33.5
2018-03-18T00:56:21.739Z,33.2
2018-03-18T00:57:12.321Z,32.9
2018-03-18T00:58:01.898Z,32.6
2018-03-18T00:58:50.706Z,32.3
2018-03-18T00:59:41.053Z,32.1
2018-03-18T01:00:31.409Z,31.8
2018-03-18T01:01:22.120Z,31.6
2018-03-18T01:02:12.159Z,31.3
2018-03-18T01:03:02.355Z,31.1
2018-03-18T01:03:53.075Z,30.9
2018-03-18T01:04:41.950Z,30.8
2018-03-18T01:05:32.655Z,31.2
2018-03-18T01:06:21.508Z,32.1
2018-03-18T01:07:12.330Z,33.4
2018-03-18T01:08:01.727Z,34.7
2018-03-18T01:08:52.930Z,35.5
2018-03-18T01:09:43.495Z,35.9
2018-03-18T01:10:32.665Z,36.1
2018-03-18T01:11:22.480Z,36.1
2018-03-18T01:12:11.865Z,35.9
2018-03-18T01:13:02.205Z,35.6
2018-03-18T01:13:52.781Z,35.3
2018-03-18T01:14:42.323Z,35.1
2018-03-18T01:15:32.380Z,34.7
2018-03-18T01:16:22.917Z,34.4
2018-03-18T01:17:12.685Z,34.1
2018-03-18T01:18:02.125Z,33.8
2018-03-18T01:18:53.306Z,33.5
2018-03-18T01:19:43.490Z,33.2
2018-03-18T01:20:33.320Z,32.9
2018-03-18T01:21:23.445Z,32.6
2018-03-18T01:22:12.178Z,32.4
2018-03-18T01:23:04.391Z,32.1
2018-03-18T01:23:53.192Z,31.8
2018-03-18T01:24:43.472Z,31.6
2018-03-18T01:25:33.589Z,31.4
2018-03-18T01:26:23.414Z,31.1
2018-03-18T01:27:14.190Z,30.9
2018-03-18T01:28:04.169Z,30.8
2018-03-18T01:28:53.659Z,30.6
2018-03-18T01:29:44.918Z,31.2
2018-03-18T01:30:34.232Z,32.6
2018-03-18T01:31:23.670Z,33.9
2018-03-18T01:32:13.982Z,35
2018-03-18T01:33:03.200Z,35.7
2018-03-18T01:33:54.114Z,36
2018-03-18T01:34:45.631Z,36.1
2018-03-18T01:35:34.890Z,35.9
2018-03-18T01:36:24.121Z,35.8
2018-03-18T01:37:14.974Z,35.5
2018-03-18T01:38:04.807Z,35.2
2018-03-18T01:38:55.276Z,34.9
2018-03-18T01:39:44.751Z,34.6
2018-03-18T01:40:34.881Z,34.3
2018-03-18T01:41:24.419Z,33.9
2018-03-18T01:42:14.328Z,33.7
2018-03-18T01:43:04.629Z,33.4
2018-03-18T01:43:53.488Z,33.1
2018-03-18T01:44:44.906Z,32.8
2018-03-18T01:45:34.918Z,32.5
2018-03-18T01:46:24.128Z,32.3
2018-03-18T01:47:14.918Z,32
2018-03-18T01:48:05.636Z,31.8
2018-03-18T01:48:54.788Z,31.5
2018-03-18T01:49:44.858Z,31.3
2018-03-18T01:50:35.404Z,31.1
2018-03-18T01:51:25.561Z,30.8
2018-03-18T01:52:15.091Z,30.6
2018-03-18T01:53:06.143Z,30.8
2018-03-18T01:53:57.672Z,31.6
2018-03-18T01:54:44.971Z,33.1
2018-03-18T01:55:36.550Z,34.3
2018-03-18T01:56:25.730Z,35.3
2018-03-18T01:57:16.245Z,35.8
2018-03-18T01:58:05.870Z,36.1
2018-03-18T01:58:55.748Z,36.1
2018-03-18T01:59:45.583Z,35.9
2018-03-18T02:00:36.294Z,35.7
2018-03-18T02:01:26.660Z,35.4
2018-03-18T02:02:16.912Z,35.1
2018-03-18T02:03:06.625Z,34.8
2018-03-18T02:03:55.484Z,34.6
2018-03-18T02:04:45.387Z,34.2
2018-03-18T02:05:36.178Z,33.9
2018-03-18T02:06:26.447Z,33.6
2018-03-18T02:07:16.707Z,33.3
2018-03-18T02:08:07.329Z,33
2018-03-18T02:08:57.666Z,32.8
2018-03-18T02:09:46.511Z,32.4
2018-03-18T02:10:37.409Z,32.2
2018-03-18T02:11:27.054Z,31.9
2018-03-18T02:12:18.159Z,31.7
2018-03-18T02:13:06.359Z,31.4
2018-03-18T02:13:57.434Z,31.3
2018-03-18T02:14:46.957Z,31
2018-03-18T02:15:36.840Z,30.8
2018-03-18T02:16:28.446Z,30.8
2018-03-18T02:17:16.552Z,31.5
2018-03-18T02:18:04.668Z,32.8
2018-03-18T02:18:56.669Z,34.1
2018-03-18T02:19:47.261Z,35.2
2018-03-18T02:20:37.868Z,35.8
2018-03-18T02:21:27.453Z,36.1
2018-03-18T02:22:18.439Z,36.1
2018-03-18T02:23:06.973Z,35.9
2018-03-18T02:23:57.149Z,35.8
2018-03-18T02:24:47.708Z,35.5
2018-03-18T02:25:38.056Z,35.2
2018-03-18T02:26:29.198Z,34.9
2018-03-18T02:27:19.131Z,34.6
2018-03-18T02:28:08.538Z,34.3
2018-03-18T02:28:58.121Z,33.9
2018-03-18T02:29:49.371Z,33.6
2018-03-18T02:30:39.509Z,33.3
2018-03-18T02:31:29.377Z,33.1
2018-03-18T02:32:18.034Z,32.8
2018-03-18T02:33:07.954Z,32.5
2018-03-18T02:33:58.008Z,32.3
2018-03-18T02:34:48.502Z,32
2018-03-18T02:35:37.800Z,31.8
2018-03-18T02:36:27.598Z,31.5
2018-03-18T02:37:18.217Z,31.3
2018-03-18T02:38:08.818Z,31.1
2018-03-18T02:38:59.135Z,30.9
2018-03-18T02:39:48.687Z,30.6
2018-03-18T02:40:38.630Z,31.2
2018-03-18T02:41:29.508Z,32.1
2018-03-18T02:42:19.243Z,33.6
2018-03-18T02:43:09.116Z,34.8
2018-03-18T02:43:59.624Z,35.6
2018-03-18T02:44:49.846Z,36
2018-03-18T02:45:38.927Z,36.1
2018-03-18T02:46:29.209Z,36.1
2018-03-18T02:47:20.186Z,35.9
2018-03-18T02:48:10.322Z,35.6
2018-03-18T02:49:00.251Z,35.3
2018-03-18T02:49:49.597Z,35.1
2018-03-18T02:50:40.982Z,34.7
2018-03-18T02:51:30.000Z,34.4
2018-03-18T02:52:19.705Z,34.1
2018-03-18T02:53:10.901Z,33.8
2018-03-18T02:53:59.855Z,33.5
2018-03-18T02:54:50.396Z,33.2
2018-03-18T02:55:40.728Z,32.9
2018-03-18T02:56:30.063Z,32.6
2018-03-18T02:57:19.780Z,32.4
2018-03-18T02:58:10.732Z,32.1
2018-03-18T02:58:59.714Z,31.9
2018-03-18T02:59:51.441Z,31.6
2018-03-18T03:00:42.270Z,31.4
2018-03-18T03:01:30.705Z,31.1
2018-03-18T03:02:19.560Z,30.9
2018-03-18T03:03:10.110Z,30.8
2018-03-18T03:04:01.943Z,30.9
2018-03-18T03:04:51.765Z,31.8
2018-03-18T03:05:41.121Z,33.2
2018-03-18T03:06:32.155Z,34.4
2018-03-18T03:07:21.599Z,35.4
2018-03-18T03:08:11.434Z,35.9
2018-03-18T03:09:01.550Z,36.1
2018-03-18T03:09:51.179Z,36.1
2018-03-18T03:10:41.881Z,35.9
2018-03-18T03:11:32.363Z,35.6
2018-03-18T03:12:21.621Z,35.4
2018-03-18T03:13:11.287Z,35.1
2018-03-18T03:14:01.811Z,34.8
2018-03-18T03:14:52.257Z,34.4
2018-03-18T03:15:43.339Z,34.1
2018-03-18T03:16:33.467Z,33.9
2018-03-18T03:17:22.241Z,33.6
2018-03-18T03:18:13.716Z,33.3
2018-03-18T03:19:03.490Z,32.9
2018-03-18T03:19:53.859Z,32.7
2018-03-18T03:20:43.175Z,32.4
2018-03-18T03:21:33.663Z,32.2
2018-03-18T03:22:23.218Z,31.9
2018-03-18T03:23:14.111Z,31.6
2018-03-18T03:24:03.610Z,31.4
2018-03-18T03:24:53.661Z,31.2
2018-03-18T03:25:43.743Z,30.9
2018-03-18T03:26:31.625Z,30.8
2018-03-18T03:27:23.868Z,31
2018-03-18T03:28:13.866Z,31.8
2018-03-18T03:29:03.789Z,33.3
2018-03-18T03:29:54.327Z,34.5
2018-03-18T03:30:44.759Z,35.4
2018-03-18T03:31:34.493Z,35.9
2018-03-18T03:32:23.989Z,36.1
2018-03-18T03:33:13.721Z,36
2018-03-18T03:34:04.906Z,35.9
2018-03-18T03:34:54.607Z,35.6
2018-03-18T03:35:44.736Z,35.4
2018-03-18T03:36:34.200Z,35.1
2018-03-18T03:37:24.800Z,34.8
2018-03-18T03:38:14.418Z,34.4
2018-03-18T03:39:05.562Z,34.1
2018-03-18T03:39:55.036Z,33.8
2018-03-18T03:40:45.317Z,33.5
2018-03-18T03:41:34.867Z,33.2
2018-03-18T03:42:24.781Z,32.9
2018-03-18T03:43:15.514Z,32.7
2018-03-18T03:44:04.052Z,32.4
2018-03-18T03:44:55.704Z,32.1
2018-03-18T03:45:45.162Z,31.9
2018-03-18T03:46:35.529Z,31.6
2018-03-18T03:47:25.189Z,31.4
2018-03-18T03:48:15.619Z,31.2
2018-03-18T03:49:05.688Z,30.9
2018-03-18T03:49:55.772Z,30.8
2018-03-18T03:50:45.495Z,30.6
2018-03-18T03:51:35.862Z,31.2
2018-03-18T03:52:25.409Z,32.5
2018-03-18T03:53:15.934Z,33.9
2018-03-18T03:54:05.786Z,35
2018-03-18T03:54:56.416Z,35.7
2018-03-18T03:55:45.861Z,36
2018-03-18T03:56:36.617Z,36.1
2018-03-18T03:57:26.259Z,36
2018-03-18T03:58:16.581Z,35.8
2018-03-18T03:59:06.163Z,35.5
2018-03-18T03:59:56.523Z,35.2
2018-03-18T04:00:46.477Z,34.9
2018-03-18T04:01:37.174Z,34.6
2018-03-18T04:02:26.348Z,34.3
2018-03-18T04:03:17.264Z,33.9
2018-03-18T04:04:07.101Z,33.6
2018-03-18T04:04:53.936Z,33.4
2018-03-18T04:05:44.713Z,33.1
2018-03-18T04:06:35.831Z,32.8
2018-03-18T04:07:25.496Z,32.6
2018-03-18T04:08:13.219Z,32.3
2018-03-18T04:09:05.729Z,32.1
2018-03-18T04:09:56.140Z,31.8
2018-03-18T04:10:45.880Z,31.6
2018-03-18T04:11:36.286Z,31.3
2018-03-18T04:12:26.388Z,31.1
2018-03-18T04:13:16.166Z,30.9
2018-03-18T04:14:05.236Z,30.7
2018-03-18T04:14:56.813Z,30.7
2018-03-18T04:15:46.780Z,31.4
2018-03-18T04:16:35.965Z,32.8
2018-03-18T04:17:26.447Z,34.1
2018-03-18T04:18:16.103Z,35.2
2018-03-18T04:19:06.624Z,35.8
2018-03-18T04:19:56.317Z,36
2018-03-18T04:20:46.569Z,36
2018-03-18T04:21:37.290Z,35.9
2018-03-18T04:22:26.687Z,35.7
2018-03-18T04:23:17.464Z,35.4
2018-03-18T04:24:08.062Z,35.1
2018-03-18T04:24:56.752Z,34.8
2018-03-18T04:25:46.457Z,34.5
2018-03-18T04:26:36.510Z,34.2
2018-03-18T04:27:27.725Z,33.9
2018-03-18T04:28:17.201Z,33.6
2018-03-18T04:29:06.652Z,33.3
2018-03-18T04:29:56.047Z,33
2018-03-18T04:30:47.096Z,32.8
2018-03-18T04:31:35.900Z,32.4
2018-03-18T04:32:27.748Z,32.2
2018-03-18T04:33:18.131Z,31.9
2018-03-18T04:34:07.334Z,31.7
2018-03-18T04:34:57.095Z,31.4
2018-03-18T04:35:47.911Z,31.3
2018-03-18T04:36:37.468Z,31
2018-03-18T04:37:27.599Z,30.8
2018-03-18T04:38:17.221Z,30.8
2018-03-18T04:39:08.761Z,31.3
2018-03-18T04:39:57.549Z,32.8
2018-03-18T04:40:47.782Z,34.1
2018-03-18T04:41:37.909Z,35.1
2018-03-18T04:42:27.541Z,35.7
2018-03-18T04:43:19.091Z,36
2018-03-18T04:44:07.813Z,36
2018-03-18T04:44:58.507Z,35.9
2018-03-18T04:45:48.649Z,35.7
2018-03-18T04:46:38.505Z,35.4
2018-03-18T04:47:29.147Z,35.1
2018-03-18T04:48:18.352Z,34.8
2018-03-18T04:49:07.950Z,34.5
2018-03-18T04:49:58.441Z,34.2
2018-03-18T04:50:48.681Z,33.9
2018-03-18T04:51:39.984Z,33.6
2018-03-18T04:52:28.856Z,33.3
2018-03-18T04:53:19.168Z,33
2018-03-18T04:54:08.898Z,32.8
2018-03-18T04:54:57.118Z,32.4
2018-03-18T04:55:48.875Z,32.3
2018-03-18T04:56:37.950Z,31.9
2018-03-18T04:57:29.542Z,31.7
2018-03-18T04:58:18.740Z,31.5
2018-03-18T04:59:08.145Z,31.3
2018-03-18T04:59:59.031Z,31
2018-03-18T05:00:49.090Z,30.8
2018-03-18T05:01:40.131Z,30.6
2018-03-18T05:02:29.076Z,30.6
2018-03-18T05:03:20.583Z,31.3
2018-03-18T05:04:09.621Z,32.8
2018-03-18T05:05:00.502Z,34.1
2018-03-18T05:05:49.155Z,35.1
2018-03-18T05:06:39.287Z,35.7
2018-03-18T05:07:29.116Z,36
2018-03-18T05:08:19.367Z,36
2018-03-18T05:09:09.665Z,35.9
2018-03-18T05:09:59.804Z,35.7
2018-03-18T05:10:49.106Z,35.4
2018-03-18T05:11:40.913Z,35.1
2018-03-18T05:12:30.321Z,34.8
2018-03-18T05:13:19.993Z,34.5
2018-03-18T05:14:09.770Z,34.1
2018-03-18T05:14:59.896Z,33.8
2018-03-18T05:15:50.407Z,33.6
2018-03-18T05:16:40.531Z,33.3
2018-03-18T05:17:29.450Z,33
2018-03-18T05:18:21.360Z,32.7
2018-03-18T05:19:10.918Z,32.4
2018-03-18T05:20:00.049Z,32.1
2018-03-18T05:20:49.636Z,31.9
2018-03-18T05:21:39.938Z,31.6
2018-03-18T05:22:29.972Z,31.4
2018-03-18T05:23:19.291Z,31.2
2018-03-18T05:24:10.765Z,31
2018-03-18T05:25:00.629Z,30.8
2018-03-18T05:25:50.865Z,30.6
2018-03-18T05:26:41.747Z,31.1
2018-03-18T05:27:30.794Z,32.3
2018-03-18T05:28:20.896Z,33.6
2018-03-18T05:29:10.277Z,34.8
2018-03-18T05:30:01.719Z,35.6
2018-03-18T05:30:51.643Z,36
2018-03-18T05:31:41.334Z,36.1
2018-03-18T05:32:31.337Z,36
2018-03-18T05:33:20.669Z,35.8
2018-03-18T05:34:11.842Z,35.6
2018-03-18T05:35:01.615Z,35.3
2018-03-18T05:35:51.535Z,35
2018-03-18T05:36:40.328Z,34.7
2018-03-18T05:37:30.239Z,34.4
2018-03-18T05:38:21.399Z,34.1
2018-03-18T05:39:12.296Z,33.7
2018-03-18T05:40:01.652Z,33.4
2018-03-18T05:40:52.538Z,33.1
2018-03-18T05:41:42.272Z,32.8
2018-03-18T05:42:32.258Z,32.6
2018-03-18T05:43:21.190Z,32.3
2018-03-18T05:44:10.899Z,32.1
2018-03-18T05:45:03.114Z,31.8
2018-03-18T05:45:51.251Z,31.6
2018-03-18T05:46:42.184Z,31.4
2018-03-18T05:47:32.678Z,31.1
2018-03-18T05:48:23.216Z,30.9
2018-03-18T05:49:12.276Z,30.7
2018-03-18T05:50:02.543Z,31
2018-03-18T05:50:51.296Z,31.8
2018-03-18T05:51:42.351Z,33.1
2018-03-18T05:52:32.563Z,34.4
2018-03-18T05:53:22.798Z,35.4
2018-03-18T05:54:12.453Z,35.9
2018-03-18T05:55:03.058Z,36.1
2018-03-18T05:55:53.277Z,36.1
2018-03-18T05:56:43.071Z,35.9
2018-03-18T05:57:32.684Z,35.8
2018-03-18T05:58:23.180Z,35.4
2018-03-18T05:59:13.262Z,35.2
2018-03-18T06:00:03.187Z,34.8
2018-03-18T06:00:53.639Z,34.5
2018-03-18T06:01:42.865Z,34.2
2018-03-18T06:02:33.593Z,33.9
2018-03-18T06:03:22.842Z,33.6
2018-03-18T06:04:15.008Z,33.3
2018-03-18T06:05:04.350Z,32.9
2018-03-18T06:05:54.224Z,32.7
2018-03-18T06:06:43.924Z,32.4
2018-03-18T06:07:34.297Z,32.1
2018-03-18T06:08:23.695Z,31.9
2018-03-18T06:09:13.555Z,31.6
2018-03-18T06:10:03.894Z,31.4
2018-03-18T06:10:53.062Z,31.2
2018-03-18T06:11:43.014Z,30.9
2018-03-18T06:12:34.044Z,30.8
2018-03-18T06:13:24.135Z,30.5
2018-03-18T06:14:14.051Z,30.3
2018-03-18T06:15:04.927Z,31
2018-03-18T06:15:53.604Z,32.3
2018-03-18T06:16:45.120Z,33.6
2018-03-18T06:17:33.659Z,34.9
2018-03-18T06:18:24.763Z,35.6
2018-03-18T06:19:15.954Z,36.1
2018-03-18T06:20:04.006Z,36.2
2018-03-18T06:20:55.491Z,36.1
2018-03-18T06:21:43.447Z,35.9
2018-03-18T06:22:35.015Z,35.6
2018-03-18T06:23:25.643Z,35.4
2018-03-18T06:24:14.796Z,35
2018-03-18T06:25:04.795Z,34.7
2018-03-18T06:25:55.581Z,34.4
2018-03-18T06:26:44.795Z,34.1
2018-03-18T06:27:35.246Z,33.8
2018-03-18T06:28:25.974Z,33.4
2018-03-18T06:29:15.255Z,33.1
2018-03-18T06:30:06.514Z,32.9
2018-03-18T06:30:54.395Z,32.6
2018-03-18T06:31:46.304Z,32.3
2018-03-18T06:32:35.423Z,32
2018-03-18T06:33:26.096Z,31.8
2018-03-18T06:34:14.347Z,31.5
2018-03-18T06:35:05.389Z,31.3
2018-03-18T06:35:55.812Z,31
2018-03-18T06:36:46.074Z,30.8
2018-03-18T06:37:36.087Z,30.6
2018-03-18T06:38:26.323Z,30.9
2018-03-18T06:39:16.535Z,31.6
2018-03-18T06:40:05.812Z,32.9
2018-03-18T06:40:54.943Z,34.2
2018-03-18T06:41:46.155Z,35.3
2018-03-18T06:42:35.270Z,35.9
2018-03-18T06:43:26.403Z,36.3
2018-03-18T06:44:16.153Z,36.3
2018-03-18T06:45:05.954Z,36.2
2018-03-18T06:45:57.163Z,35.9
2018-03-18T06:46:46.548Z,35.7
2018-03-18T06:47:37.220Z,35.4
2018-03-18T06:48:26.053Z,35.1
2018-03-18T06:49:16.566Z,34.8
2018-03-18T06:50:06.605Z,34.4
2018-03-18T06:50:56.320Z,34.1
2018-03-18T06:51:46.135Z,33.8
2018-03-18T06:52:36.862Z,33.4
2018-03-18T06:53:27.014Z,33.1
2018-03-18T06:54:16.279Z,32.8
2018-03-18T06:55:07.117Z,32.6
2018-03-18T06:55:57.274Z,32.3
2018-03-18T06:56:48.849Z,32
2018-03-18T06:57:37.315Z,31.8
2018-03-18T06:58:27.292Z,31.5
2018-03-18T06:59:16.225Z,31.3
2018-03-18T07:00:07.884Z,31
2018-03-18T07:00:57.638Z,30.8
2018-03-18T07:01:47.513Z,30.6
2018-03-18T07:02:37.596Z,31.1
2018-03-18T07:03:26.934Z,32.3
2018-03-18T07:04:18.662Z,33.6
2018-03-18T07:05:08.244Z,34.8
2018-03-18T07:05:57.446Z,35.6
2018-03-18T07:06:48.121Z,36.1
2018-03-18T07:07:37.746Z,36.3
2018-03-18T07:08:28.358Z,36.3
2018-03-18T07:09:18.723Z,36.1
2018-03-18T07:10:09.256Z,35.8
2018-03-18T07:10:58.629Z,35.6
2018-03-18T07:11:48.248Z,35.3
2018-03-18T07:12:38.953Z,34.9
2018-03-18T07:13:28.347Z,34.6
2018-03-18T07:14:19.246Z,34.3
2018-03-18T07:15:08.188Z,33.9
2018-03-18T07:15:58.329Z,33.6
2018-03-18T07:16:49.446Z,33.3
2018-03-18T07:17:39.530Z,33
2018-03-18T07:18:27.653Z,32.7
2018-03-18T07:19:17.838Z,32.4
2018-03-18T07:20:09.873Z,32.1
2018-03-18T07:20:59.833Z,31.9
2018-03-18T07:21:49.828Z,31.6
2018-03-18T07:22:39.303Z,31.4
2018-03-18T07:23:30.457Z,31.1
2018-03-18T07:24:18.555Z,30.9
2018-03-18T07:25:10.477Z,30.7
2018-03-18T07:26:00.321Z,30.5
2018-03-18T07:26:48.575Z,31.1
2018-03-18T07:27:39.492Z,32.3
2018-03-18T07:28:30.538Z,33.6
2018-03-18T07:29:20.628Z,34.8
2018-03-18T07:30:10.093Z,35.7
2018-03-18T07:31:01.119Z,36.1
2018-03-18T07:31:50.370Z,36.3
2018-03-18T07:32:39.614Z,36.3
2018-03-18T07:33:30.782Z,36.1
2018-03-18T07:34:20.853Z,35.9
2018-03-18T07:35:10.300Z,35.6
2018-03-18T07:36:00.692Z,35.3
2018-03-18T07:36:50.617Z,34.9
2018-03-18T07:37:40.963Z,34.6
2018-03-18T07:38:31.210Z,34.3
2018-03-18T07:39:21.854Z,33.9
2018-03-18T07:40:10.907Z,33.6
2018-03-18T07:41:00.148Z,33.3
2018-03-18T07:41:51.307Z,32.9
2018-03-18T07:42:41.014Z,32.6
2018-03-18T07:43:30.445Z,32.4
2018-03-18T07:44:22.597Z,32.1
2018-03-18T07:45:11.069Z,31.8
2018-03-18T07:46:01.456Z,31.6
2018-03-18T07:46:51.315Z,31.3
2018-03-18T07:47:40.379Z,31.1
2018-03-18T07:48:31.684Z,30.8
2018-03-18T07:49:21.727Z,30.6
2018-03-18T07:50:11.661Z,30.4
2018-03-18T07:51:01.579Z,30.9
2018-03-18T07:51:51.048Z,31.9
2018-03-18T07:52:41.356Z,33.3
2018-03-18T07:53:31.588Z,34.5
2018-03-18T07:54:21.528Z,35.4
2018-03-18T07:55:11.761Z,36.1
2018-03-18T07:56:01.975Z,36.3
2018-03-18T07:56:52.813Z,36.3
2018-03-18T07:57:42.164Z,36.2
2018-03-18T07:58:31.570Z,35.9
2018-03-18T07:59:22.947Z,35.6
2018-03-18T08:00:12.949Z,35.3
2018-03-18T08:01:03.679Z,35
2018-03-18T08:01:53.082Z,34.6
2018-03-18T08:02:43.745Z,34.3
2018-03-18T08:03:32.733Z,34
2018-03-18T08:04:22.452Z,33.7
2018-03-18T08:05:13.619Z,33.4
2018-03-18T08:06:03.375Z,33.1
2018-03-18T08:06:54.143Z,32.8
2018-03-18T08:07:42.280Z,32.4
2018-03-18T08:08:32.742Z,32.2
2018-03-18T08:09:23.145Z,31.9
2018-03-18T08:10:13.330Z,31.7
2018-03-18T08:11:03.103Z,31.4
2018-03-18T08:11:52.487Z,31.2
2018-03-18T08:12:43.311Z,31
2018-03-18T08:13:33.379Z,30.8
2018-03-18T08:14:22.068Z,30.5
2018-03-18T08:15:14.942Z,30.6
2018-03-18T08:16:04.140Z,31.3
2018-03-18T08:16:55.380Z,32.6
2018-03-18T08:17:44.532Z,33.9
2018-03-18T08:18:35.157Z,35.1
2018-03-18T08:19:24.107Z,35.8
2018-03-18T08:20:15.661Z,36.3
2018-03-18T08:21:05.012Z,36.4
2018-03-18T08:21:55.089Z,36.3
2018-03-18T08:22:44.722Z,36.1
2018-03-18T08:23:34.960Z,35.9
2018-03-18T08:24:25.011Z,35.6
2018-03-18T08:25:15.220Z,35.3
2018-03-18T08:26:05.969Z,34.9
2018-03-18T08:26:55.610Z,34.6
2018-03-18T08:27:44.489Z,34.3
2018-03-18T08:28:35.291Z,33.9
2018-03-18T08:29:25.134Z,33.6
2018-03-18T08:30:15.219Z,33.3
2018-03-18T08:31:05.537Z,33
2018-03-18T08:31:55.886Z,32.7
2018-03-18T08:32:45.933Z,32.4
2018-03-18T08:33:36.558Z,32.1
2018-03-18T08:34:26.983Z,31.9
2018-03-18T08:35:15.220Z,31.6
2018-03-18T08:36:05.916Z,31.4
2018-03-18T08:36:56.038Z,31.2
2018-03-18T08:37:46.342Z,30.9
2018-03-18T08:38:36.382Z,30.7
2018-03-18T08:39:26.725Z,30.5
2018-03-18T08:40:16.204Z,30.8
2018-03-18T08:41:06.547Z,31.4
2018-03-18T08:41:56.450Z,32.7
2018-03-18T08:42:45.272Z,33.9
2018-03-18T08:43:36.306Z,35.1
2018-03-18T08:44:27.086Z,35.9
2018-03-18T08:45:17.193Z,36.3
2018-03-18T08:46:06.656Z,36.5
2018-03-18T08:46:57.353Z,36.4
2018-03-18T08:47:45.622Z,36.2
2018-03-18T08:48:36.820Z,35.9
2018-03-18T08:49:26.038Z,35.6
2018-03-18T08:50:16.472Z,35.3
2018-03-18T08:51:06.453Z,35
2018-03-18T08:51:56.535Z,34.6
2018-03-18T08:52:46.274Z,34.3
2018-03-18T08:53:36.412Z,34
2018-03-18T08:54:27.290Z,33.7
2018-03-18T08:55:16.513Z,33.4
2018-03-18T08:56:06.520Z,33.1
2018-03-18T08:56:58.012Z,32.8
2018-03-18T08:57:46.910Z,32.5
2018-03-18T08:58:36.524Z,32.3
2018-03-18T08:59:27.314Z,31.9
2018-03-18T09:00:17.274Z,31.7
2018-03-18T09:01:08.214Z,31.4
2018-03-18T09:01:57.550Z,31.2
2018-03-18T09:02:45.657Z,31
2018-03-18T09:03:36.490Z,30.8
2018-03-18T09:04:25.768Z,30.6
2018-03-18T09:05:15.253Z,31.1
2018-03-18T09:06:06.247Z,32.2
2018-03-18T09:06:56.091Z,33.5
2018-03-18T09:07:46.224Z,34.7
2018-03-18T09:08:35.795Z,35.6
2018-03-18T09:09:26.528Z,36.2
2018-03-18T09:10:15.654Z,36.4
2018-03-18T09:11:04.994Z,36.4
2018-03-18T09:11:56.018Z,36.3
2018-03-18T09:12:45.479Z,36.1
2018-03-18T09:13:36.506Z,35.8
2018-03-18T09:14:26.354Z,35.4
2018-03-18T09:15:16.351Z,35.1
2018-03-18T09:16:07.302Z,34.8
2018-03-18T09:16:57.874Z,34.4
2018-03-18T09:17:47.219Z,34.1
2018-03-18T09:18:37.565Z,33.8
2018-03-18T09:19:28.688Z,33.5
2018-03-18T09:20:17.669Z,33.2
2018-03-18T09:21:06.073Z,32.9
2018-03-18T09:21:57.063Z,32.6
2018-03-18T09:22:48.193Z,32.3
2018-03-18T09:23:37.147Z,32.1
2018-03-18T09:24:28.753Z,31.8
2018-03-18T09:25:17.216Z,31.6
2018-03-18T09:26:06.531Z,31.3
2018-03-18T09:26:59.413Z,31.1
2018-03-18T09:27:47.850Z,30.9
2018-03-18T09:28:38.353Z,30.8
2018-03-18T09:29:28.280Z,31.3
2018-03-18T09:30:18.815Z,32.5
2018-03-18T09:31:08.960Z,33.8
2018-03-18T09:31:58.187Z,34.9
2018-03-18T09:32:48.255Z,35.8
2018-03-18T09:33:38.855Z,36.3
2018-03-18T09:34:29.342Z,36.4
2018-03-18T09:35:17.655Z,36.4
2018-03-18T09:36:09.184Z,36.3
2018-03-18T09:36:59.408Z,36
2018-03-18T09:37:48.218Z,35.7
2018-03-18T09:38:39.833Z,35.4
2018-03-18T09:39:28.947Z,35.1
2018-03-18T09:40:17.692Z,34.8
2018-03-18T09:41:09.625Z,34.4
2018-03-18T09:41:58.972Z,34.1
2018-03-18T09:42:49.905Z,33.8
2018-03-18T09:43:38.973Z,33.4
2018-03-18T09:44:29.422Z,33.1
2018-03-18T09:45:20.188Z,32.8
2018-03-18T09:46:09.195Z,32.5
2018-03-18T09:46:59.640Z,32.3
2018-03-18T09:47:49.637Z,32
2018-03-18T09:48:40.157Z,31.8
2018-03-18T09:49:30.223Z,31.5
2018-03-18T09:50:19.660Z,31.3
2018-03-18T09:51:09.832Z,31
2018-03-18T09:52:00.272Z,30.8
2018-03-18T09:52:51.044Z,30.6
2018-03-18T09:53:38.830Z,31.1
2018-03-18T09:54:29.067Z,31.9
2018-03-18T09:55:19.520Z,33.1
2018-03-18T09:56:08.977Z,34.4
2018-03-18T09:57:00.029Z,35.4
2018-03-18T09:57:48.654Z,36.1
2018-03-18T09:58:39.553Z,36.4
2018-03-18T09:59:29.798Z,36.5
2018-03-18T10:00:20.226Z,36.4
2018-03-18T10:01:10.158Z,36.1
2018-03-18T10:02:01.163Z,35.8
2018-03-18T10:02:50.893Z,35.5
2018-03-18T10:03:40.741Z,35.2
2018-03-18T10:04:31.070Z,34.8
2018-03-18T10:05:20.963Z,34.5
2018-03-18T10:06:09.988Z,34.1
2018-03-18T10:07:01.389Z,33.8
2018-03-18T10:07:49.965Z,33.5
2018-03-18T10:08:41.303Z,33.2
2018-03-18T10:09:31.405Z,32.9
2018-03-18T10:10:21.412Z,32.6
2018-03-18T10:11:11.095Z,32.3
2018-03-18T10:12:01.545Z,32.1
2018-03-18T10:12:51.457Z,31.8
2018-03-18T10:13:42.448Z,31.5
2018-03-18T10:14:31.212Z,31.3
2018-03-18T10:15:21.704Z,31
2018-03-18T10:16:11.708Z,30.8
2018-03-18T10:17:01.520Z,30.6
2018-03-18T10:17:52.253Z,30.4
2018-03-18T10:18:41.990Z,30.8
2018-03-18T10:19:32.321Z,31.4
2018-03-18T10:20:22.725Z,32.8
2018-03-18T10:21:11.939Z,34.1
2018-03-18T10:22:03.090Z,35.1
2018-03-18T10:22:53.878Z,35.9
2018-03-18T10:23:42.925Z,36.4
2018-03-18T10:24:32.995Z,36.5
2018-03-18T10:25:22.825Z,36.4
2018-03-18T10:26:13.632Z,36.2
2018-03-18T10:27:03.374Z,35.9
2018-03-18T10:27:53.997Z,35.6
2018-03-18T10:28:45.119Z,35.3
2018-03-18T10:29:34.541Z,34.9
2018-03-18T10:30:24.843Z,34.6
2018-03-18T10:31:15.775Z,34.3
2018-03-18T10:32:05.269Z,34
2018-03-18T10:32:54.240Z,33.7
2018-03-18T10:33:44.642Z,33.3
2018-03-18T10:34:35.508Z,33.1
2018-03-18T10:35:24.770Z,32.8
2018-03-18T10:36:15.324Z,32.4
2018-03-18T10:37:04.542Z,32.2
2018-03-18T10:37:55.362Z,31.9
2018-03-18T10:38:45.763Z,31.7
2018-03-18T10:39:36.051Z,31.4
2018-03-18T10:40:25.733Z,31.2
2018-03-18T10:41:15.711Z,30.9
2018-03-18T10:42:07.258Z,30.8
2018-03-18T10:42:56.104Z,30.8
2018-03-18T10:43:45.991Z,31.3
2018-03-18T10:44:35.919Z,32.5
2018-03-18T10:45:24.033Z,33.8
2018-03-18T10:46:14.975Z,34.9
2018-03-18T10:47:03.605Z,35.8
2018-03-18T10:47:55.237Z,36.3
2018-03-18T10:48:45.422Z,36.5
2018-03-18T10:49:33.661Z,36.4
2018-03-18T10:50:25.069Z,36.3
2018-03-18T10:51:15.034Z,36.1
2018-03-18T10:52:04.510Z,35.8
2018-03-18T10:52:54.697Z,35.4
2018-03-18T10:53:44.170Z,35.1
2018-03-18T10:54:35.343Z,34.8
2018-03-18T10:55:25.253Z,34.4
2018-03-18T10:56:14.682Z,34.1
2018-03-18T10:57:04.278Z,33.8
2018-03-18T10:57:56.375Z,33.4
2018-03-18T10:58:45.758Z,33.1
2018-03-18T10:59:36.203Z,32.9
2018-03-18T11:00:25.190Z,32.6
2018-03-18T11:01:16.012Z,32.3
2018-03-18T11:02:06.735Z,32.1
2018-03-18T11:02:56.980Z,31.8
2018-03-18T11:03:47.053Z,31.5
2018-03-18T11:04:37.106Z,31.3
2018-03-18T11:05:27.219Z,31.1
2018-03-18T11:06:16.962Z,30.8
2018-03-18T11:07:07.050Z,30.8
2018-03-18T11:07:57.317Z,31.4
2018-03-18T11:08:47.512Z,32.6
2018-03-18T11:09:37.717Z,33.9